createdAt,value
2022-08-23T00:00:10.969Z,27.10
2022-08-23T00:02:43.351Z,27.11
2022-08-23T00:05:11.166Z,27.07
2022-08-23T00:07:39.413Z,27.00
2022-08-23T00:10:08.640Z,26.91
2022-08-23T00:12:36.164Z,26.98
2022-08-23T00:15:04.449Z,26.94
2022-08-23T00:17:34.966Z,26.95
2022-08-23T00:20:06.562Z,27.00
2022-08-23T00:22:34.173Z,27.00
2022-08-23T00:25:01.454Z,27.00
2022-08-23T00:27:28.721Z,27.01
2022-08-23T00:29:56.164Z,27.00
2022-08-23T00:32:26.188Z,26.95
2022-08-23T00:34:57.045Z,26.92
2022-08-23T00:37:32.474Z,26.90
2022-08-23T00:40:00.182Z,26.78
2022-08-23T00:42:52.299Z,26.79
2022-08-23T00:45:50.247Z,26.77
2022-08-23T00:48:17.542Z,26.78
2022-08-23T00:50:49.669Z,26.76
2022-08-23T00:53:23.009Z,26.46
2022-08-23T00:55:51.802Z,26.48
2022-08-23T00:58:19.834Z,26.52
2022-08-23T01:00:49.002Z,26.52
2022-08-23T01:03:19.563Z,26.55
2022-08-23T01:05:55.060Z,26.56
2022-08-23T01:08:23.634Z,26.21
2022-08-23T01:10:52.827Z,26.11
2022-08-23T01:13:48.898Z,25.96
2022-08-23T01:16:17.337Z,25.97
2022-08-23T01:18:47.831Z,25.76
2022-08-23T01:21:17.344Z,25.87
2022-08-23T01:23:49.859Z,25.40
2022-08-23T01:26:21.774Z,25.61
2022-08-23T01:28:50.265Z,25.84
2022-08-23T01:31:18.208Z,25.71
2022-08-23T01:33:49.950Z,25.66
2022-08-23T01:36:17.738Z,25.66
2022-08-23T01:38:48.280Z,25.89
2022-08-23T01:41:15.584Z,25.93
2022-08-23T01:43:43.000Z,25.96
2022-08-23T01:46:18.108Z,25.89
2022-08-23T01:48:46.459Z,25.98
2022-08-23T01:51:17.579Z,25.69
2022-08-23T01:53:48.352Z,25.82
2022-08-23T01:56:27.663Z,25.94
2022-08-23T01:59:10.948Z,25.99
2022-08-23T02:01:43.895Z,25.93
2022-08-23T02:04:11.992Z,25.69
2022-08-23T02:06:39.444Z,25.91
2022-08-23T02:09:17.186Z,25.92
2022-08-23T02:11:45.827Z,26.06
2022-08-23T02:14:15.844Z,26.10
2022-08-23T02:17:03.601Z,26.09
2022-08-23T02:19:33.214Z,26.12
2022-08-23T02:22:06.098Z,26.04
2022-08-23T02:24:34.446Z,26.12
2022-08-23T02:27:04.403Z,26.10
2022-08-23T02:29:39.094Z,25.92
2022-08-23T02:32:09.770Z,25.97
2022-08-23T02:34:40.764Z,25.83
2022-08-23T02:37:09.166Z,25.95
2022-08-23T02:39:36.697Z,25.73
2022-08-23T02:42:11.833Z,25.84
2022-08-23T02:44:44.627Z,25.86
2022-08-23T02:47:12.552Z,25.58
2022-08-23T02:49:44.581Z,25.74
2022-08-23T02:52:11.873Z,25.76
2022-08-23T02:54:40.348Z,25.70
2022-08-23T02:57:08.678Z,25.60
2022-08-23T02:59:37.349Z,25.55
2022-08-23T03:02:06.177Z,25.55
2022-08-23T03:04:39.238Z,25.53
2022-08-23T03:07:06.699Z,25.61
2022-08-23T03:09:36.241Z,25.65
2022-08-23T03:12:04.549Z,25.75
2022-08-23T03:14:35.352Z,25.74
2022-08-23T03:17:07.687Z,25.69
2022-08-23T03:19:35.265Z,25.66
2022-08-23T03:22:02.635Z,25.74
2022-08-23T03:24:32.842Z,25.74
2022-08-23T03:27:07.945Z,25.75
2022-08-23T03:29:37.821Z,25.80
2022-08-23T03:32:07.544Z,25.82
2022-08-23T03:34:37.878Z,25.85
2022-08-23T03:37:10.223Z,25.84
2022-08-23T03:39:38.453Z,25.86
2022-08-23T03:42:08.763Z,25.69
2022-08-23T03:44:37.081Z,25.71
2022-08-23T03:47:06.130Z,25.77
2022-08-23T03:49:36.180Z,25.68
2022-08-23T03:52:04.279Z,25.67
2022-08-23T03:54:32.715Z,25.47
2022-08-23T03:57:02.653Z,25.33
2022-08-23T03:59:34.695Z,25.36
2022-08-23T04:02:03.638Z,25.22
2022-08-23T04:04:32.150Z,25.32
2022-08-23T04:07:25.766Z,25.42
2022-08-23T04:09:56.341Z,25.49
2022-08-23T04:12:26.496Z,25.15
2022-08-23T04:14:53.841Z,25.11
2022-08-23T04:17:22.382Z,25.32
2022-08-23T04:19:51.194Z,25.38
2022-08-23T04:22:19.765Z,25.31
2022-08-23T04:24:47.252Z,25.39
2022-08-23T04:27:15.120Z,25.43
2022-08-23T04:29:43.443Z,25.42
2022-08-23T04:32:12.852Z,25.26
2022-08-23T04:34:45.487Z,25.41
2022-08-23T04:37:15.101Z,25.47
2022-08-23T04:40:01.650Z,25.45
2022-08-23T04:42:36.189Z,25.46
2022-08-23T04:45:03.837Z,25.33
2022-08-23T04:47:44.839Z,25.24
2022-08-23T04:50:12.552Z,25.24
2022-08-23T04:53:02.205Z,25.35
2022-08-23T04:55:35.006Z,25.42
2022-08-23T04:58:06.555Z,25.06
2022-08-23T05:00:42.875Z,25.26
2022-08-23T05:03:15.304Z,25.29
2022-08-23T05:05:43.027Z,25.20
2022-08-23T05:08:10.602Z,25.14
2022-08-23T05:10:38.224Z,24.74
2022-08-23T05:15:54.271Z,25.07
2022-08-23T05:18:25.072Z,25.11
2022-08-23T05:20:53.651Z,25.25
2022-08-23T05:23:29.346Z,25.21
2022-08-23T05:26:05.857Z,24.97
2022-08-23T05:28:39.969Z,24.75
2022-08-23T05:31:10.410Z,24.99
2022-08-23T05:33:46.923Z,25.03
2022-08-23T05:36:18.749Z,24.69
2022-08-23T05:38:47.159Z,24.65
2022-08-23T05:41:16.890Z,24.66
2022-08-23T05:43:47.754Z,24.59
2022-08-23T05:46:16.518Z,24.68
2022-08-23T05:48:55.089Z,24.51
2022-08-23T05:51:28.440Z,24.79
2022-08-23T05:53:57.862Z,24.67
2022-08-23T05:56:26.838Z,24.65
2022-08-23T05:58:59.946Z,24.83
2022-08-23T06:01:34.305Z,24.77
2022-08-23T06:04:12.023Z,24.80
2022-08-23T06:06:42.527Z,24.39
2022-08-23T06:09:17.103Z,24.45
2022-08-23T06:11:50.438Z,24.67
2022-08-23T06:14:19.076Z,24.64
2022-08-23T06:16:49.530Z,24.66
2022-08-23T06:19:25.324Z,24.67
2022-08-23T06:22:13.808Z,24.58
2022-08-23T06:24:43.877Z,24.40
2022-08-23T06:27:16.176Z,24.61
2022-08-23T06:29:46.177Z,24.49
2022-08-23T06:32:39.281Z,24.39
2022-08-23T06:35:49.052Z,24.64
2022-08-23T06:38:30.402Z,24.37
2022-08-23T06:41:01.808Z,24.40
2022-08-23T06:43:41.844Z,24.31
2022-08-23T06:49:30.175Z,24.43
2022-08-23T06:52:05.711Z,24.41
2022-08-23T06:54:59.612Z,24.50
2022-08-23T06:57:52.908Z,24.69
2022-08-23T07:00:33.624Z,24.72
2022-08-23T07:03:17.865Z,24.75
2022-08-23T07:06:06.814Z,24.85
2022-08-23T07:08:38.350Z,24.85
2022-08-23T07:11:08.922Z,24.88
2022-08-23T07:14:07.084Z,25.10
2022-08-23T07:16:34.730Z,25.15
2022-08-23T07:19:02.543Z,25.20
2022-08-23T07:21:30.637Z,25.32
2022-08-23T07:26:48.209Z,25.90
2022-08-23T07:29:19.435Z,25.80
2022-08-23T07:31:58.674Z,25.80
2022-08-23T07:34:30.599Z,25.83
2022-08-23T07:36:58.892Z,25.71
2022-08-23T07:39:26.731Z,25.73
2022-08-23T07:41:55.341Z,25.66
2022-08-23T07:44:27.173Z,26.05
2022-08-23T07:47:50.422Z,26.05
2022-08-23T07:50:23.908Z,26.23
2022-08-23T07:53:03.273Z,25.90
2022-08-23T07:55:32.492Z,25.70
2022-08-23T07:58:35.227Z,25.95
2022-08-23T08:01:27.406Z,26.09
2022-08-23T08:03:58.748Z,26.25
2022-08-23T08:06:35.130Z,26.06
2022-08-23T08:09:02.450Z,26.08
2022-08-23T08:11:34.815Z,26.13
2022-08-23T08:14:04.874Z,26.13
2022-08-23T08:16:33.598Z,26.16
2022-08-23T08:19:03.786Z,26.67
2022-08-23T08:21:51.452Z,26.45
2022-08-23T08:24:28.943Z,26.62
2022-08-23T08:27:04.705Z,26.74
2022-08-23T08:29:33.327Z,26.37
2022-08-23T08:32:01.047Z,26.61
2022-08-23T08:34:28.645Z,26.49
2022-08-23T08:36:59.253Z,26.78
2022-08-23T08:39:29.346Z,26.87
2022-08-23T08:42:05.526Z,26.00
2022-08-23T08:44:47.139Z,26.36
2022-08-23T08:47:21.481Z,26.44
2022-08-23T08:49:48.901Z,26.58
2022-08-23T08:52:16.865Z,26.79
2022-08-23T08:54:48.052Z,26.84
2022-08-23T08:57:16.876Z,26.82
2022-08-23T08:59:46.234Z,27.08
2022-08-23T09:02:32.074Z,27.12
2022-08-23T09:05:02.606Z,27.28
2022-08-23T09:07:33.121Z,27.06
2022-08-23T09:10:04.051Z,27.08
2022-08-23T09:12:35.619Z,26.56
2022-08-23T09:15:26.923Z,26.94
2022-08-23T09:18:17.473Z,26.74
2022-08-23T09:20:47.767Z,27.14
2022-08-23T09:23:24.003Z,26.87
2022-08-23T09:25:58.812Z,26.92
2022-08-23T09:28:34.040Z,27.07
2022-08-23T09:31:08.372Z,27.55
2022-08-23T09:33:46.271Z,27.54
2022-08-23T09:40:41.330Z,27.33
2022-08-23T09:43:32.106Z,27.46
2022-08-23T09:46:02.256Z,27.23
2022-08-23T09:48:40.630Z,27.60
2022-08-23T09:51:17.667Z,27.93
2022-08-23T09:53:53.615Z,27.80
2022-08-23T09:56:24.558Z,28.01
2022-08-23T09:58:53.866Z,28.01
2022-08-23T10:02:02.059Z,27.59
2022-08-23T10:04:37.005Z,27.57
2022-08-23T10:07:26.278Z,27.66
2022-08-23T10:10:12.699Z,27.73
2022-08-23T10:12:42.917Z,27.65
2022-08-23T10:15:11.675Z,27.73
2022-08-23T10:21:34.070Z,27.91
2022-08-23T10:28:06.959Z,28.21
2022-08-23T10:30:54.492Z,28.59
2022-08-23T10:33:27.205Z,28.61
2022-08-23T10:36:14.874Z,28.56
2022-08-23T10:38:42.376Z,28.92
2022-08-23T10:41:34.425Z,28.81
2022-08-23T10:44:09.749Z,28.88
2022-08-23T10:46:43.644Z,29.04
2022-08-23T10:49:14.930Z,29.44
2022-08-23T10:51:45.865Z,29.08
2022-08-23T10:54:18.496Z,29.41
2022-08-23T10:56:51.133Z,28.74
2022-08-23T10:59:29.038Z,28.57
2022-08-23T11:02:17.829Z,28.77
2022-08-23T11:05:07.944Z,29.45
2022-08-23T11:07:37.603Z,29.49
2022-08-23T11:10:26.934Z,30.32
2022-08-23T11:12:55.779Z,30.82
2022-08-23T11:15:23.954Z,30.06
2022-08-23T11:17:56.411Z,30.87
2022-08-23T11:20:44.014Z,31.40
2022-08-23T11:23:13.015Z,31.80
2022-08-23T11:25:47.081Z,32.19
2022-08-23T11:28:23.786Z,31.40
2022-08-23T11:31:19.915Z,31.35
2022-08-23T11:33:53.823Z,33.76
2022-08-23T11:37:13.060Z,34.12
2022-08-23T11:40:26.946Z,33.30
2022-08-23T11:42:59.941Z,34.68
2022-08-23T11:45:33.361Z,34.69
2022-08-23T11:52:27.955Z,35.30
2022-08-23T11:55:06.606Z,33.73
2022-08-23T12:01:54.936Z,34.68
2022-08-23T12:07:37.669Z,34.03
2022-08-23T12:10:05.315Z,33.79
2022-08-23T12:12:38.461Z,34.95
2022-08-23T12:15:12.699Z,34.48
2022-08-23T12:18:09.052Z,34.18
2022-08-23T12:20:36.919Z,34.21
2022-08-23T12:23:37.279Z,34.58
2022-08-23T12:26:09.389Z,35.23
2022-08-23T12:33:04.870Z,35.28
2022-08-23T12:35:45.307Z,35.66
2022-08-23T12:38:33.127Z,35.25
2022-08-23T12:41:12.406Z,33.96
2022-08-23T12:43:57.423Z,34.49
2022-08-23T12:46:32.306Z,34.27
2022-08-23T12:51:48.786Z,34.69
2022-08-23T12:54:18.143Z,35.20
2022-08-23T12:56:58.825Z,35.87
2022-08-23T13:02:25.194Z,38.62
2022-08-23T13:04:52.962Z,37.46
2022-08-23T13:07:23.405Z,37.27
2022-08-23T13:09:53.602Z,36.22
2022-08-23T13:12:22.982Z,35.87
2022-08-23T13:14:51.662Z,36.95
2022-08-23T13:17:22.078Z,37.74
2022-08-23T13:20:01.334Z,36.61
2022-08-23T13:22:29.708Z,36.06
2022-08-23T13:25:32.133Z,36.36
2022-08-23T13:28:22.825Z,36.22
2022-08-23T13:31:03.844Z,36.44
2022-08-23T13:33:34.768Z,37.15
2022-08-23T13:36:16.934Z,37.51
2022-08-23T13:38:45.635Z,36.53
2022-08-23T13:41:38.359Z,34.42
2022-08-23T13:44:18.974Z,34.71
2022-08-23T13:46:50.023Z,35.22
2022-08-23T13:49:24.057Z,34.84
2022-08-23T13:54:53.108Z,31.48
2022-08-23T13:57:41.527Z,32.06
2022-08-23T14:00:19.285Z,31.56
2022-08-23T14:02:50.967Z,30.59
2022-08-23T14:05:19.871Z,30.60
2022-08-23T14:07:48.650Z,30.33
2022-08-23T14:10:39.661Z,30.15
2022-08-23T14:13:08.417Z,30.04
2022-08-23T14:18:26.871Z,30.23
2022-08-23T14:20:56.880Z,30.38
2022-08-23T14:23:25.229Z,30.55
2022-08-23T14:25:55.944Z,30.23
2022-08-23T14:28:44.567Z,30.25
2022-08-23T14:31:12.313Z,29.92
2022-08-23T14:33:39.918Z,29.93
2022-08-23T14:36:07.946Z,30.08
2022-08-23T14:38:35.465Z,30.28
2022-08-23T14:41:04.378Z,30.00
2022-08-23T14:43:53.193Z,30.02
2022-08-23T14:46:23.862Z,30.17
2022-08-23T14:48:51.392Z,30.04
2022-08-23T14:51:25.081Z,29.66
2022-08-23T14:53:55.078Z,29.82
2022-08-23T14:56:57.438Z,29.71
2022-08-23T14:59:27.472Z,29.81
2022-08-23T15:02:18.442Z,29.92
2022-08-23T15:04:52.292Z,29.86
2022-08-23T15:07:20.101Z,29.63
2022-08-23T15:10:00.129Z,29.51
2022-08-23T15:15:34.492Z,29.62
2022-08-23T15:18:10.531Z,29.69
2022-08-23T15:20:43.959Z,29.53
2022-08-23T15:23:11.897Z,29.61
2022-08-23T15:25:45.714Z,29.52
2022-08-23T15:28:18.511Z,29.59
2022-08-23T15:30:51.753Z,29.68
2022-08-23T15:33:33.103Z,29.68
2022-08-23T15:36:08.459Z,29.75
2022-08-23T15:38:38.443Z,29.63
2022-08-23T15:41:13.675Z,29.62
2022-08-23T15:43:44.511Z,29.53
2022-08-23T15:46:26.351Z,29.48
2022-08-23T15:48:56.869Z,29.37
2022-08-23T15:51:27.318Z,29.55
2022-08-23T15:54:00.832Z,29.51
2022-08-23T15:56:40.008Z,29.37
2022-08-23T15:59:10.390Z,29.44
2022-08-23T16:01:42.772Z,29.50
2022-08-23T16:11:41.453Z,29.69
2022-08-23T16:14:15.508Z,29.65
2022-08-23T16:16:49.701Z,29.67
2022-08-23T16:19:17.250Z,29.46
2022-08-23T16:21:52.028Z,29.52
2022-08-23T16:24:24.467Z,29.61
2022-08-23T16:27:21.807Z,29.53
2022-08-23T16:29:52.079Z,29.62
2022-08-23T16:32:44.039Z,29.66
2022-08-23T16:35:21.064Z,29.50
2022-08-23T16:37:49.595Z,29.58
2022-08-23T16:40:22.569Z,29.63
2022-08-23T16:43:02.849Z,29.41
2022-08-23T16:45:36.078Z,29.45
2022-08-23T16:48:04.375Z,29.47
2022-08-23T16:50:42.026Z,29.46
2022-08-23T16:53:12.044Z,29.34
2022-08-23T16:55:44.875Z,29.18
2022-08-23T16:58:15.087Z,29.13
2022-08-23T17:00:47.913Z,29.04
2022-08-23T17:03:19.515Z,29.03
2022-08-23T17:05:51.482Z,28.98
2022-08-23T17:08:19.345Z,29.06
2022-08-23T17:10:49.442Z,29.11
2022-08-23T17:13:19.376Z,29.03
2022-08-23T17:15:55.916Z,29.13
2022-08-23T17:18:27.715Z,29.13
2022-08-23T17:21:00.150Z,29.09
2022-08-23T17:23:33.530Z,29.14
2022-08-23T17:26:06.854Z,29.09
2022-08-23T17:28:36.964Z,28.90
2022-08-23T17:31:12.377Z,28.94
2022-08-23T17:33:45.160Z,28.81
2022-08-23T17:36:54.567Z,28.90
2022-08-23T17:39:28.957Z,28.91
2022-08-23T17:42:02.518Z,28.85
2022-08-23T17:44:35.599Z,28.88
2022-08-23T17:47:07.838Z,28.93
2022-08-23T17:49:38.233Z,28.88
2022-08-23T17:52:06.526Z,28.90
2022-08-23T17:54:45.872Z,28.69
2022-08-23T17:57:16.280Z,28.76
2022-08-23T17:59:46.927Z,28.85
2022-08-23T18:02:26.105Z,28.71
2022-08-23T18:05:01.034Z,28.79
2022-08-23T18:07:34.034Z,28.73
2022-08-23T18:10:01.611Z,28.70
2022-08-23T18:12:31.601Z,28.60
2022-08-23T18:15:06.061Z,28.64
2022-08-23T18:17:33.931Z,28.61
2022-08-23T18:20:06.812Z,28.61
2022-08-23T18:22:59.550Z,28.52
2022-08-23T18:25:29.591Z,28.48
2022-08-23T18:28:25.418Z,28.40
2022-08-23T18:31:00.843Z,28.53
2022-08-23T18:33:47.031Z,28.39
2022-08-23T18:36:15.773Z,28.33
2022-08-23T18:38:48.563Z,28.35
2022-08-23T18:41:24.574Z,28.42
2022-08-23T18:43:58.366Z,28.46
2022-08-23T18:46:33.607Z,28.42
2022-08-23T18:49:01.624Z,28.30
2022-08-23T18:51:37.875Z,28.15
2022-08-23T18:54:13.932Z,27.97
2022-08-23T18:56:45.240Z,27.90
2022-08-23T18:59:16.043Z,27.81
2022-08-23T19:01:51.674Z,27.68
2022-08-23T19:04:49.829Z,27.48
2022-08-23T19:07:37.604Z,27.56
2022-08-23T19:10:09.464Z,27.23
2022-08-23T19:12:40.351Z,27.16
2022-08-23T19:15:33.703Z,27.23
2022-08-23T19:18:04.558Z,27.15
2022-08-23T19:20:43.803Z,27.22
2022-08-23T19:23:32.719Z,27.43
2022-08-23T19:26:09.896Z,27.49
2022-08-23T19:28:42.928Z,27.55
2022-08-23T19:31:15.887Z,27.65
2022-08-23T19:33:48.192Z,27.56
2022-08-23T19:36:42.689Z,27.40
2022-08-23T19:39:12.621Z,27.22
2022-08-23T19:41:45.508Z,27.24
2022-08-23T19:44:36.252Z,27.48
2022-08-23T19:47:19.426Z,27.32
2022-08-23T19:49:53.532Z,27.59
2022-08-23T19:52:24.930Z,27.48
2022-08-23T19:55:04.436Z,27.36
2022-08-23T19:57:36.416Z,27.28
2022-08-23T20:00:14.578Z,27.29
2022-08-23T20:02:47.702Z,27.50
2022-08-23T20:05:17.605Z,27.37
2022-08-23T20:07:55.688Z,27.16
2022-08-23T20:10:27.787Z,27.16
2022-08-23T20:13:21.860Z,27.27
2022-08-23T20:15:54.284Z,27.39
2022-08-23T20:18:29.021Z,27.40
2022-08-23T20:24:04.691Z,27.27
2022-08-23T20:26:40.885Z,27.54
2022-08-23T20:29:14.211Z,27.65
2022-08-23T20:31:49.836Z,27.43
2022-08-23T20:34:27.039Z,27.33
2022-08-23T20:37:00.669Z,27.43
2022-08-23T20:39:28.596Z,27.32
2022-08-23T20:41:58.947Z,27.50
2022-08-23T20:44:31.851Z,27.34
2022-08-23T20:47:04.737Z,27.46
2022-08-23T20:49:41.338Z,27.40
2022-08-23T20:52:12.172Z,27.47
2022-08-23T20:54:45.115Z,27.42
2022-08-23T20:57:13.202Z,27.44
2022-08-23T20:59:46.990Z,27.57
2022-08-23T21:02:17.383Z,27.72
2022-08-23T21:04:55.995Z,27.49
2022-08-23T21:07:24.283Z,27.27
2022-08-23T21:10:01.041Z,27.21
2022-08-23T21:12:36.263Z,27.29
2022-08-23T21:18:00.707Z,27.59
2022-08-23T21:20:34.229Z,27.68
2022-08-23T21:23:05.628Z,27.32
2022-08-23T21:25:44.849Z,27.05
2022-08-23T21:28:18.298Z,27.19
2022-08-23T21:30:46.857Z,27.19
2022-08-23T21:33:16.828Z,27.03
2022-08-23T21:35:47.202Z,27.08
2022-08-23T21:38:17.886Z,27.22
2022-08-23T21:40:58.212Z,27.25
2022-08-23T21:43:35.152Z,27.22
2022-08-23T21:46:03.239Z,27.17
2022-08-23T21:48:36.078Z,27.27
2022-08-23T21:51:03.961Z,27.27
2022-08-23T21:53:31.515Z,27.14
2022-08-23T21:56:02.321Z,27.26
2022-08-23T21:58:30.098Z,27.40
2022-08-23T22:00:57.648Z,26.93
2022-08-23T22:03:47.607Z,27.04
2022-08-23T22:06:18.940Z,27.26
2022-08-23T22:08:47.923Z,27.15
2022-08-23T22:11:18.891Z,27.26
2022-08-23T22:13:53.171Z,27.18
2022-08-23T22:16:26.127Z,26.83
2022-08-23T22:18:56.582Z,26.80
2022-08-23T22:21:24.141Z,26.76
2022-08-23T22:23:52.910Z,26.77
2022-08-23T22:26:40.746Z,26.68
2022-08-23T22:29:14.445Z,26.58
2022-08-23T22:31:50.624Z,26.56
2022-08-23T22:34:27.436Z,26.64
2022-08-23T22:36:59.928Z,26.52
2022-08-23T22:39:34.139Z,26.26
2022-08-23T22:42:05.012Z,26.08
2022-08-23T22:44:40.154Z,26.44
2022-08-23T22:47:10.950Z,26.52
2022-08-23T22:49:46.779Z,26.56
2022-08-23T22:52:17.820Z,26.48
2022-08-23T22:55:10.842Z,26.76
2022-08-23T22:57:44.585Z,26.78
2022-08-23T23:00:23.276Z,26.75
2022-08-23T23:02:59.940Z,26.72
2022-08-23T23:05:31.670Z,26.91
2022-08-23T23:08:21.084Z,27.00
2022-08-23T23:10:54.158Z,26.88
2022-08-23T23:13:24.969Z,26.96
2022-08-23T23:15:58.176Z,27.00
2022-08-23T23:18:31.543Z,26.85
2022-08-23T23:21:05.504Z,26.92
2022-08-23T23:23:39.671Z,26.95
2022-08-23T23:26:09.602Z,26.94
2022-08-23T23:28:40.182Z,26.51
2022-08-23T23:31:35.562Z,26.43
2022-08-23T23:34:11.008Z,26.49
2022-08-23T23:36:43.174Z,26.65
2022-08-23T23:39:20.079Z,26.75
2022-08-23T23:41:50.884Z,26.72
2022-08-23T23:44:30.916Z,26.65
2022-08-23T23:47:02.792Z,26.62
2022-08-23T23:49:37.312Z,26.78
2022-08-23T23:52:30.198Z,26.79
2022-08-23T23:54:57.837Z,26.74
2022-08-23T23:57:28.149Z,26.68
